Greensboro, NC (27409)

7:15 PM EDT on July 06, 2015 (GMT -0400)
Meadowood | | Change Station
CLOSE
Current Station
Personal Weather Station
Location: Greensboro, NC
Elevation: 750 ft
Nearby Weather Stations

Elev 750 ft 36.06 °N, 79.89 °W | Updated 50 seconds ago

Mostly Cloudy
Mostly Cloudy
85.8 °F
Feels Like 87 °F
N
0.0
Wind Variable Wind from WNW
Gusts 0.0 mph

Today
High -- | Low -- °F
--% Chance of Precip.
Yesterday
High -- | Low -- °F
Precip. -- in
6:08 AM 8:39 PM
Waning Gibbous, 71% visible
Pressure 30.04 in
Visibility 9.0 miles
Clouds Few 4500 ft
Mostly Cloudy 8000 ft
Mostly Cloudy 25000 ft
Heat Index 87 °F
Dew Point 64 °F
Humidity 48%
Rainfall 0.00 in
Snow Depth Not available.
UV 1 out of 12
Pollen 2.20 out of 12
Air Quality Not available.
Flu Activity Not available.
METAR KGSO 062254Z 36004KT 9SM FEW045 BKN080 BKN250 28/18 A3007 RMK AO2 SLP172 CB DSNT SE AND NW T02780178

More Conditions Fewer Conditions

Pressure 30.04 in
Visibility 9.0 miles
Clouds Few 4500 ft
Mostly Cloudy 8000 ft
Mostly Cloudy 25000 ft
Heat Index 87 °F
Dew Point 64 °F
Humidity 48%
Rainfall 0.00 in
Snow Depth Not available.
UV 1 out of 12
Pollen 2.20 out of 12
Air Quality Not available.
Flu Activity Not available.
METAR KGSO 062254Z 36004KT 9SM FEW045 BKN080 BKN250 28/18 A3007 RMK AO2 SLP172 CB DSNT SE AND NW T02780178

More Conditions Fewer Conditions

10-Day Weather Forecast

×

Almanac

Astronomy

Jul. 06, 2015 Rise Set
Actual Time
Civil Twilight
Nautical Twilight
Astronomical Twilight
Moon
Length of Visible Light
Length of Day
Tomorrow will be .
, % of the Moon is Illuminated

Today's Extremes

State Highs State Lows

Community

WunderPhotos

Upload Photos

1,835,674 photos uploaded!

WunderBlogs® & News

Nearby

Air Quality

  Air Quality AQ Index Pollutant
Not available.

Snow Depth

Station Depth Elevation

Earthquake Activity

City Distance Mag. Time & Date
Minimum magnitude displayed is 2.5.

Coastal Water Temperatures

Place Temperature

Stations

Nearby Weather Stations

Station Location Temp. Windchill Dew Point Humidity Wind Precip. Elev Updated Type